Time;durP1;ratioP1;P1;durP2;ratioP2;P2;SDS_P1;SDS_P2;PMS_P1;PMS_P2;Temp;Humidity;BMP_temperature;BMP_pressure;BME280_temperature;BME280_humidity;BME280_pressure;Samples;Min_cycle;Max_cycle;Signal;HPM_P1;HPM_P2
2022/06/17 00:02:01;;;;;;;13.02;10.45;;;14.40;99.90;;;;;;5095457;28;20047;-67
2022/06/17 00:04:27;;;;;;;16.08;10.95;;;14.40;99.90;;;;;;5113620;28;20040;-68
2022/06/17 00:06:56;;;;;;;11.05;9.48;;;14.40;99.90;;;;;;5078383;28;20047;-68
2022/06/17 00:09:25;;;;;;;14.50;10.35;;;14.40;99.90;;;;;;5113436;28;20495;-68
2022/06/17 00:11:51;;;;;;;12.55;10.30;;;14.40;99.90;;;;;;5095240;28;20036;-69
2022/06/17 00:14:28;;;;;;;14.93;10.48;;;14.30;99.90;;;;;;5095201;28;20046;-68
2022/06/17 00:16:54;;;;;;;13.80;9.85;;;14.30;99.90;;;;;;5095165;28;20493;-68
2022/06/17 00:19:20;;;;;;;9.95;8.65;;;14.30;99.90;;;;;;5078328;28;20035;-68
2022/06/17 00:21:51;;;;;;;12.82;9.05;;;14.30;99.90;;;;;;5078327;28;20042;-68
2022/06/17 00:24:20;;;;;;;9.95;8.45;;;14.30;99.90;;;;;;5095165;28;20497;-68
2022/06/17 00:26:46;;;;;;;14.93;9.60;;;14.30;99.90;;;;;;5077993;28;20089;-68
2022/06/17 00:29:14;;;;;;;10.88;9.20;;;14.30;99.90;;;;;;5111179;28;20032;-68
2022/06/17 00:31:42;;;;;;;10.38;8.52;;;14.30;99.90;;;;;;5113140;28;20495;-68
2022/06/17 00:34:08;;;;;;;10.52;8.77;;;14.30;99.90;;;;;;5095327;28;20050;-68
2022/06/17 00:36:34;;;;;;;12.40;8.88;;;14.30;99.90;;;;;;5113028;28;20047;-69
2022/06/17 00:39:00;;;;;;;13.18;9.40;;;14.30;99.90;;;;;;5094981;28;20118;-68
2022/06/17 00:41:37;;;;;;;11.88;8.05;;;14.30;99.90;;;;;;5094845;28;20040;-68
2022/06/17 00:44:32;;;;;;;13.88;8.65;;;14.30;99.90;;;;;;5095047;28;20035;-69
2022/06/17 00:47:20;;;;;;;11.18;8.90;;;14.40;99.90;;;;;;5094844;28;20044;-69
2022/06/17 00:50:01;;;;;;;11.38;9.23;;;14.30;99.90;;;;;;5094901;28;20043;-71
2022/06/17 00:52:41;;;;;;;14.18;9.40;;;14.30;99.90;;;;;;5113066;28;20108;-69
2022/06/17 00:55:13;;;;;;;;;;;14.30;99.90;;;;;;5095373;28;20367;-69
2022/06/17 00:57:41;;;;;;;9.18;8.20;;;14.30;99.90;;;;;;5075673;28;19915;-69
2022/06/17 01:00:11;;;;;;;12.65;8.55;;;14.40;99.90;;;;;;5113031;28;20045;-69
2022/06/17 01:02:42;;;;;;;11.90;8.65;;;14.40;99.90;;;;;;5077836;28;20071;-68
2022/06/17 01:05:10;;;;;;;13.95;9.02;;;14.40;99.90;;;;;;5112961;28;20047;-69
2022/06/17 01:07:51;;;;;;;12.30;8.57;;;14.40;99.90;;;;;;5095218;28;20044;-69
2022/06/17 01:10:19;;;;;;;16.08;9.57;;;14.40;99.90;;;;;;5117132;28;20553;-69
2022/06/17 01:12:52;;;;;;;16.50;8.65;;;14.40;99.90;;;;;;5117014;28;20043;-68
2022/06/17 01:15:21;;;;;;;11.18;8.18;;;14.40;99.90;;;;;;5098550;28;20089;-70
2022/06/17 01:17:49;;;;;;;9.70;8.70;;;14.40;99.90;;;;;;5098504;28;20043;-69
2022/06/17 01:20:16;;;;;;;12.10;8.55;;;14.40;99.90;;;;;;5098372;28;20548;-70
2022/06/17 01:22:49;;;;;;;12.50;9.23;;;14.40;99.90;;;;;;5116618;28;20502;-70
2022/06/17 01:25:20;;;;;;;13.93;8.73;;;14.40;99.90;;;;;;5116690;28;20498;-69
2022/06/17 01:27:58;;;;;;;9.93;8.55;;;14.40;99.90;;;;;;5095876;28;20556;-69
2022/06/17 01:30:31;;;;;;;12.93;8.23;;;14.40;99.90;;;;;;5081337;28;20043;-69
2022/06/17 01:33:22;;;;;;;10.55;8.13;;;14.30;99.90;;;;;;5116296;28;20039;-69
2022/06/17 01:36:06;;;;;;;14.00;8.77;;;14.30;99.90;;;;;;5104907;28;20111;-70
2022/06/17 01:38:35;;;;;;;14.25;7.88;;;14.30;99.90;;;;;;5098331;28;20075;-68
2022/06/17 01:41:02;;;;;;;9.35;8.30;;;14.30;99.90;;;;;;5116311;28;20040;-68
2022/06/17 01:43:53;;;;;;;9.75;7.63;;;14.30;99.90;;;;;;5116171;28;20079;-70
2022/06/17 01:46:40;;;;;;;10.40;8.60;;;14.30;99.90;;;;;;5097775;28;20130;-69
2022/06/17 01:49:26;;;;;;;10.15;8.40;;;14.20;99.90;;;;;;5097821;28;20108;-69
2022/06/17 01:52:24;;;;;;;9.07;8.18;;;14.30;99.90;;;;;;5097800;28;20118;-69
2022/06/17 01:55:09;;;;;;;11.30;9.05;;;14.30;99.90;;;;;;5102345;28;20051;-68
2022/06/17 01:57:49;;;;;;;9.93;8.60;;;14.20;99.90;;;;;;5095688;28;20782;-69
2022/06/17 02:00:24;;;;;;;11.23;8.85;;;14.20;99.90;;;;;;5080855;28;20035;-69
2022/06/17 02:03:04;;;;;;;11.82;9.02;;;14.20;99.90;;;;;;5097567;28;20040;-68
2022/06/17 02:05:33;;;;;;;12.93;9.27;;;14.20;99.90;;;;;;5097846;28;20031;-68
2022/06/17 02:08:02;;;;;;;10.95;9.25;;;14.20;99.90;;;;;;5097388;28;20039;-68
2022/06/17 02:10:39;;;;;;;12.45;9.55;;;14.10;99.90;;;;;;5115605;28;20043;-68
2022/06/17 02:13:06;;;;;;;12.63;8.50;;;14.10;99.90;;;;;;5097351;28;20050;-69
2022/06/17 02:15:34;;;;;;;11.45;9.43;;;14.00;99.90;;;;;;5115593;28;20467;-69
2022/06/17 02:18:01;;;;;;;14.23;9.15;;;13.90;99.90;;;;;;5097344;28;20546;-69
2022/06/17 02:20:27;;;;;;;15.45;10.85;;;13.90;99.90;;;;;;5096598;28;20403;-69
2022/06/17 02:22:56;;;;;;;19.00;9.77;;;13.90;99.90;;;;;;5115576;28;20104;-70
2022/06/17 02:25:31;;;;;;;12.60;9.88;;;13.80;99.90;;;;;;5097324;28;20048;-69
2022/06/17 02:28:02;;;;;;;16.40;9.65;;;13.90;99.90;;;;;;5113173;28;20078;-68
2022/06/17 02:30:29;;;;;;;12.95;9.65;;;13.80;99.90;;;;;;5097256;28;20049;-69
2022/06/17 02:32:59;;;;;;;17.20;9.45;;;13.80;99.90;;;;;;5097001;28;20194;-69
2022/06/17 02:35:40;;;;;;;13.55;9.32;;;13.80;99.90;;;;;;5115298;28;20472;-70
2022/06/17 02:38:10;;;;;;;17.95;9.00;;;13.80;99.90;;;;;;5115207;28;20498;-69
2022/06/17 02:40:39;;;;;;;14.10;9.48;;;13.80;99.90;;;;;;5115309;28;20403;-68
2022/06/17 02:43:11;;;;;;;13.05;9.15;;;13.80;99.90;;;;;;5115106;28;20100;-68
2022/06/17 02:45:43;;;;;;;11.25;9.77;;;13.90;99.90;;;;;;5093280;28;20052;-69
2022/06/17 02:48:31;;;;;;;12.98;9.57;;;13.80;99.90;;;;;;5076360;28;20066;-68
2022/06/17 02:50:59;;;;;;;15.43;10.27;;;13.90;99.90;;;;;;5094539;28;20036;-69
2022/06/17 02:53:32;;;;;;;12.75;9.65;;;13.90;99.90;;;;;;5093342;28;20118;-69
2022/06/17 02:56:00;;;;;;;12.55;9.55;;;13.90;99.90;;;;;;5094471;28;20032;-69
2022/06/17 02:58:41;;;;;;;17.55;9.40;;;13.90;99.90;;;;;;5090887;28;20047;-69
2022/06/17 03:01:25;;;;;;;13.90;9.85;;;13.90;99.90;;;;;;5094597;28;20119;-68
2022/06/17 03:03:53;;;;;;;14.00;10.80;;;14.00;99.90;;;;;;5092948;28;20048;-68
2022/06/17 03:06:30;;;;;;;14.57;10.23;;;14.00;99.90;;;;;;5093164;28;20125;-69
2022/06/17 03:09:13;;;;;;;15.00;9.80;;;14.00;99.90;;;;;;5092744;28;20109;-68
2022/06/17 03:11:40;;;;;;;13.82;10.13;;;14.00;99.90;;;;;;5094272;28;20114;-69
2022/06/17 03:14:09;;;;;;;13.73;10.18;;;13.90;99.90;;;;;;5093983;28;20075;-69
2022/06/17 03:16:35;;;;;;;15.23;9.95;;;14.00;99.90;;;;;;5094038;28;20546;-69
2022/06/17 03:19:02;;;;;;;11.90;10.70;;;14.00;99.90;;;;;;5092643;28;20503;-69
2022/06/17 03:21:28;;;;;;;12.88;10.20;;;14.00;99.90;;;;;;5092601;28;20071;-68
2022/06/17 03:24:11;;;;;;;14.52;10.63;;;14.00;99.90;;;;;;5093941;28;20075;-69
2022/06/17 03:26:42;;;;;;;15.45;10.02;;;14.00;99.90;;;;;;5093968;28;20040;-69
2022/06/17 03:29:11;;;;;;;12.52;9.55;;;14.00;99.90;;;;;;5090592;28;20040;-69
2022/06/17 03:31:46;;;;;;;17.10;10.50;;;14.00;99.90;;;;;;5092207;28;20043;-70
2022/06/17 03:34:37;;;;;;;13.52;9.90;;;14.00;99.90;;;;;;5092671;28;20036;-69
2022/06/17 03:37:35;;;;;;;14.57;10.13;;;14.00;99.90;;;;;;5092618;28;20036;-68
2022/06/17 03:40:16;;;;;;;17.83;10.57;;;13.90;99.90;;;;;;5092573;28;20453;-68
2022/06/17 03:42:57;;;;;;;10.75;9.32;;;13.90;99.90;;;;;;5093566;28;20464;-69
2022/06/17 03:45:28;;;;;;;14.80;10.40;;;13.90;99.90;;;;;;5104439;28;20056;-71
2022/06/17 03:48:03;;;;;;;14.38;9.80;;;13.90;99.90;;;;;;5113745;28;20122;-69
2022/06/17 03:50:34;;;;;;;13.02;9.20;;;14.00;99.90;;;;;;5095901;28;20085;-72
2022/06/17 03:53:17;;;;;;;15.35;10.43;;;14.00;99.90;;;;;;5095563;28;20123;-69
2022/06/17 03:55:43;;;;;;;17.95;9.65;;;14.10;99.90;;;;;;5113916;28;20028;-70
2022/06/17 03:58:15;;;;;;;13.02;11.02;;;14.20;99.90;;;;;;5093256;28;20540;-70
2022/06/17 04:00:49;;;;;;;13.48;9.68;;;14.20;99.90;;;;;;5078849;28;20035;-69
2022/06/17 04:03:20;;;;;;;15.45;11.30;;;14.30;99.90;;;;;;5095309;28;20051;-68
2022/06/17 04:05:51;;;;;;;12.73;9.63;;;14.40;99.90;;;;;;5095368;28;20043;-70
2022/06/17 04:08:17;;;;;;;13.52;9.85;;;14.40;99.90;;;;;;5095157;28;20046;-70
2022/06/17 04:10:43;;;;;;;13.65;10.27;;;14.50;99.90;;;;;;5078342;28;20449;-68
2022/06/17 04:13:14;;;;;;;12.57;10.48;;;14.60;99.90;;;;;;5113304;28;20039;-68
2022/06/17 04:15:57;;;;;;;15.80;11.23;;;14.60;99.90;;;;;;5095131;28;20043;-70
2022/06/17 04:18:23;;;;;;;14.57;10.98;;;14.60;99.90;;;;;;5113603;28;20114;-70
2022/06/17 04:20:54;;;;;;;13.38;11.52;;;14.60;99.90;;;;;;5113507;28;20517;-68
2022/06/17 04:23:33;;;;;;;14.65;11.35;;;14.70;99.90;;;;;;5095265;28;20045;-69
2022/06/17 04:26:10;;;;;;;16.63;10.80;;;14.80;99.90;;;;;;5113160;28;20483;-70
2022/06/17 04:28:59;;;;;;;16.70;11.77;;;14.90;99.90;;;;;;5111110;28;20100;-70
2022/06/17 04:31:27;;;;;;;12.90;11.50;;;14.90;99.90;;;;;;5095058;28;20487;-69
2022/06/17 04:34:01;;;;;;;20.95;11.90;;;15.00;99.90;;;;;;5078326;28;20039;-71
2022/06/17 04:36:34;;;;;;;12.98;11.57;;;15.10;99.90;;;;;;5094843;28;20123;-70
2022/06/17 04:39:23;;;;;;;19.08;12.43;;;15.10;99.90;;;;;;5095111;28;20485;-71
2022/06/17 04:41:55;;;;;;;14.95;11.70;;;15.20;99.90;;;;;;5113085;28;20086;-70
2022/06/17 04:44:21;;;;;;;16.90;12.90;;;15.30;99.90;;;;;;5116410;28;20040;-71
2022/06/17 04:46:58;;;;;;;17.90;12.90;;;15.20;99.90;;;;;;5117180;28;20100;-71
2022/06/17 04:49:28;;;;;;;16.70;12.23;;;15.30;99.90;;;;;;5117227;28;20168;-69
2022/06/17 04:51:59;;;;;;;18.20;12.40;;;15.40;99.90;;;;;;5117541;28;20039;-71
2022/06/17 04:54:27;;;;;;;17.90;12.45;;;15.40;99.90;;;;;;5099133;28;20428;-70
2022/06/17 04:56:56;;;;;;;17.20;12.52;;;15.40;99.90;;;;;;5098960;28;20043;-71
2022/06/17 04:59:24;;;;;;;15.90;12.35;;;15.50;99.90;;;;;;5114909;28;20055;-71
2022/06/17 05:01:52;;;;;;;17.13;12.63;;;15.50;99.90;;;;;;5098686;28;20047;-69
2022/06/17 05:04:19;;;;;;;18.23;13.15;;;15.60;99.90;;;;;;5098593;28;20050;-69
2022/06/17 05:06:44;;;;;;;18.13;13.13;;;15.60;99.90;;;;;;5116878;28;20054;-71
2022/06/17 05:09:31;;;;;;;18.63;13.10;;;15.60;99.90;;;;;;5116994;28;20032;-70
2022/06/17 05:12:23;;;;;;;13.95;11.60;;;15.70;99.90;;;;;;5116830;28;20097;-69
2022/06/17 05:14:56;;;;;;;16.08;12.13;;;15.70;99.90;;;;;;5098434;28;20043;-68
2022/06/17 05:17:22;;;;;;;13.30;11.93;;;15.80;99.90;;;;;;5098550;28;20039;-67
2022/06/17 05:19:53;;;;;;;17.25;12.63;;;15.80;99.90;;;;;;5098281;28;20112;-68
2022/06/17 05:22:39;;;;;;;14.82;11.07;;;15.90;99.90;;;;;;5081342;28;20047;-67
2022/06/17 05:25:19;;;;;;;13.90;11.85;;;15.90;99.90;;;;;;5116429;28;20108;-66
2022/06/17 05:27:46;;;;;;;14.95;11.73;;;16.00;99.90;;;;;;5114228;28;20055;-67
2022/06/17 05:30:12;;;;;;;15.60;12.15;;;16.00;99.90;;;;;;5116357;28;20131;-68
2022/06/17 05:32:41;;;;;;;14.65;11.45;;;16.10;99.90;;;;;;5116322;28;20491;-69
2022/06/17 05:35:08;;;;;;;12.73;11.38;;;16.10;99.90;;;;;;5098277;28;20123;-69
2022/06/17 05:37:33;;;;;;;13.52;11.88;;;16.20;99.90;;;;;;5098186;28;20051;-67
2022/06/17 05:39:59;;;;;;;14.38;11.77;;;16.30;99.90;;;;;;5110832;27;20039;-68
2022/06/17 05:42:27;;;;;;;12.85;11.30;;;16.30;99.90;;;;;;5097724;28;20047;-67
2022/06/17 05:44:53;;;;;;;15.98;11.98;;;16.40;99.90;;;;;;5079449;28;20054;-68
2022/06/17 05:47:19;;;;;;;12.80;11.27;;;16.40;99.90;;;;;;5080955;28;20039;-68
2022/06/17 05:49:45;;;;;;;14.30;11.95;;;16.50;99.90;;;;;;5097622;28;20479;-70
2022/06/17 05:52:11;;;;;;;16.88;11.63;;;16.60;99.90;;;;;;5097760;28;20114;-67
2022/06/17 05:54:37;;;;;;;13.25;11.82;;;16.60;99.90;;;;;;5097525;28;20039;-68
2022/06/17 05:57:03;;;;;;;14.52;11.27;;;16.70;99.90;;;;;;5115975;28;20085;-69
2022/06/17 05:59:29;;;;;;;15.18;11.82;;;16.70;99.90;;;;;;5095497;28;20475;-67
2022/06/17 06:01:55;;;;;;;12.25;10.95;;;16.80;99.90;;;;;;5097528;28;20079;-67
2022/06/17 06:04:21;;;;;;;13.07;11.30;;;16.80;99.90;;;;;;5097333;28;20044;-67
2022/06/17 06:06:47;;;;;;;14.55;12.23;;;16.90;99.90;;;;;;5097473;28;20044;-67
2022/06/17 06:09:14;;;;;;;15.18;13.00;;;16.90;99.90;;;;;;5097643;28;20058;-68
2022/06/17 06:11:40;;;;;;;15.38;11.80;;;16.90;99.90;;;;;;5115688;28;20032;-67
2022/06/17 06:14:05;;;;;;;14.18;12.52;;;17.00;99.90;;;;;;5097288;28;20058;-68
2022/06/17 06:16:31;;;;;;;13.75;12.23;;;17.00;99.90;;;;;;5080239;28;20039;-65
2022/06/17 06:18:57;;;;;;;14.38;12.50;;;17.10;99.90;;;;;;5097024;28;20043;-67
2022/06/17 06:21:23;;;;;;;14.07;10.80;;;17.20;99.90;;;;;;5097080;28;20032;-67
2022/06/17 06:23:49;;;;;;;13.73;12.35;;;17.30;99.90;;;;;;5115257;28;20097;-67
2022/06/17 06:26:18;;;;;;;15.27;12.25;;;17.50;99.90;;;;;;5115132;28;20046;-67
2022/06/17 06:28:44;;;;;;;14.67;11.93;;;17.60;99.90;;;;;;5094923;28;20044;-64
2022/06/17 06:31:33;;;;;;;16.85;12.57;;;17.70;99.90;;;;;;5115120;28;20265;-66
2022/06/17 06:33:59;;;;;;;14.70;11.52;;;17.80;99.90;;;;;;5114642;28;20122;-66
2022/06/17 06:36:25;;;;;;;14.77;10.60;;;18.00;99.90;;;;;;5096759;28;20115;-73
2022/06/17 06:38:51;;;;;;;16.95;12.27;;;18.00;99.90;;;;;;5115241;28;20035;-66
2022/06/17 06:41:17;;;;;;;14.00;11.65;;;18.10;99.90;;;;;;5096940;28;20087;-69
2022/06/17 06:43:44;;;;;;;12.10;10.70;;;18.10;99.90;;;;;;5096488;28;20502;-67
2022/06/17 06:46:13;;;;;;;16.40;11.73;;;18.20;99.90;;;;;;5092876;28;20095;-67
2022/06/17 06:48:40;;;;;;;17.27;12.17;;;18.30;99.90;;;;;;5093145;28;20109;-68
2022/06/17 06:51:06;;;;;;;14.43;10.82;;;18.30;99.90;;;;;;5094396;28;20097;-67
2022/06/17 06:53:31;;;;;;;15.07;11.43;;;18.30;99.90;;;;;;5094576;28;20040;-70
2022/06/17 06:55:57;;;;;;;16.40;11.43;;;18.40;99.90;;;;;;5094167;28;20092;-67
2022/06/17 06:58:25;;;;;;;16.77;10.65;;;18.50;99.90;;;;;;5091815;28;20069;-68
2022/06/17 07:00:56;;;;;;;15.18;10.77;;;18.50;99.90;;;;;;5093153;28;20484;-71
2022/06/17 07:03:24;;;;;;;13.48;10.50;;;18.60;99.90;;;;;;5093170;28;20424;-66
2022/06/17 07:05:56;;;;;;;15.40;10.48;;;18.60;99.90;;;;;;5092226;28;20040;-69
2022/06/17 07:08:25;;;;;;;12.88;10.98;;;18.70;99.90;;;;;;5092736;28;20055;-69
2022/06/17 07:10:53;;;;;;;12.65;10.93;;;18.90;99.90;;;;;;5092628;28;20036;-67
2022/06/17 07:13:21;;;;;;;12.30;10.50;;;19.10;99.90;;;;;;5094258;28;20032;-67
2022/06/17 07:15:47;;;;;;;13.80;10.35;;;19.30;99.90;;;;;;5094171;28;20047;-67
2022/06/17 07:18:22;;;;;;;12.77;9.90;;;19.40;99.90;;;;;;5092681;28;20047;-67
2022/06/17 07:20:54;;;;;;;10.57;9.35;;;19.60;99.90;;;;;;5092789;28;20036;-70
2022/06/17 07:23:24;;;;;;;11.68;8.80;;;19.60;99.90;;;;;;5093920;28;20047;-65
2022/06/17 07:25:52;;;;;;;10.73;9.18;;;19.70;99.90;;;;;;5092667;28;20040;-66
2022/06/17 07:28:21;;;;;;;11.77;9.15;;;19.80;99.90;;;;;;5090230;28;20101;-68
2022/06/17 07:30:50;;;;;;;17.77;9.02;;;19.80;99.90;;;;;;5093929;28;20039;-76
2022/06/17 07:33:20;;;;;;;10.95;9.55;;;19.90;99.90;;;;;;5092420;28;20468;-67
2022/06/17 07:35:47;;;;;;;11.27;9.32;;;19.90;99.90;;;;;;5088675;28;20123;-67
2022/06/17 07:41:01;;;;;;;10.60;8.55;;;20.00;99.90;;;;;;5093620;28;20476;-72
2022/06/17 07:43:27;;;;;;;11.70;8.80;;;20.10;99.90;;;;;;5093490;28;20032;-68
2022/06/17 07:45:53;;;;;;;12.35;9.00;;;20.20;99.90;;;;;;5092043;28;20066;-68
2022/06/17 07:48:19;;;;;;;11.02;8.68;;;20.20;99.90;;;;;;5092103;28;20059;-66
2022/06/17 07:50:46;;;;;;;12.07;9.32;;;20.30;99.90;;;;;;5092244;28;20036;-68
2022/06/17 07:53:14;;;;;;;9.27;8.25;;;20.30;99.90;;;;;;5092188;28;20040;-72
2022/06/17 07:55:41;;;;;;;10.57;7.50;;;20.30;99.90;;;;;;5092074;28;20040;-68
2022/06/17 07:58:09;;;;;;;9.75;8.65;;;20.40;99.90;;;;;;5089934;28;20109;-69
2022/06/17 08:00:41;;;;;;;9.10;7.75;;;20.40;99.90;;;;;;5091881;28;20040;-66
2022/06/17 08:03:08;;;;;;;9.65;7.82;;;20.40;99.90;;;;;;5093243;28;20036;-68
2022/06/17 08:05:34;;;;;;;9.95;7.88;;;20.60;99.90;;;;;;5093216;28;20101;-66
2022/06/17 08:08:03;;;;;;;9.95;7.43;;;20.90;99.90;;;;;;5091876;28;20101;-69
2022/06/17 08:10:33;;;;;;;8.02;6.88;;;21.10;99.90;;;;;;5074974;28;20032;-71
2022/06/17 08:13:00;;;;;;;10.23;7.88;;;21.30;99.90;;;;;;5093156;28;20032;-69
2022/06/17 08:15:26;;;;;;;9.80;7.45;;;21.50;99.90;;;;;;5091708;28;20043;-66
2022/06/17 08:17:52;;;;;;;8.57;6.65;;;21.70;99.90;;;;;;5090989;28;20063;-67
2022/06/17 08:20:24;;;;;;;8.98;7.43;;;21.90;99.90;;;;;;5091853;28;20083;-69
2022/06/17 08:22:51;;;;;;;8.57;7.35;;;22.10;99.90;;;;;;5091614;28;20575;-71
2022/06/17 08:25:17;;;;;;;9.73;6.38;;;22.10;99.90;;;;;;5091733;28;20384;-72
2022/06/17 08:27:45;;;;;;;8.85;7.45;;;21.90;99.90;;;;;;5089007;28;20044;-69
2022/06/17 08:30:12;;;;;;;12.90;8.23;;;21.80;99.90;;;;;;5091641;28;20044;-72
2022/06/17 08:32:48;;;;;;;11.23;7.35;;;21.60;99.90;;;;;;5091150;28;20036;-67
2022/06/17 08:35:23;;;;;;;11.50;7.57;;;21.50;99.90;;;;;;5091283;28;20123;-69
2022/06/17 08:37:57;;;;;;;10.85;7.53;;;21.40;99.90;;;;;;5091501;28;20105;-66
2022/06/17 08:40:51;;;;;;;10.10;8.20;;;21.40;99.90;;;;;;5092738;28;20047;-67
2022/06/17 08:43:28;;;;;;;11.27;7.40;;;21.50;99.90;;;;;;5092689;28;20455;-68
2022/06/17 08:46:13;;;;;;;12.68;7.57;;;21.50;99.90;;;;;;5091369;28;20130;-67
2022/06/17 08:48:48;;;;;;;9.82;7.07;;;21.60;99.90;;;;;;5091376;28;20052;-67
2022/06/17 08:51:38;;;;;;;9.57;7.90;;;21.80;99.90;;;;;;5091177;28;20036;-66
2022/06/17 08:54:27;;;;;;;9.18;7.20;;;22.10;99.90;;;;;;5091460;28;20515;-66
2022/06/17 08:57:21;;;;;;;9.00;6.53;;;22.40;99.90;;;;;;5092786;28;20040;-70
2022/06/17 09:00:11;;;;;;;10.95;6.75;;;22.70;99.90;;;;;;5090222;28;20040;-67
2022/06/17 09:03:14;;;;;;;8.18;6.53;;;22.90;99.90;;;;;;5074517;28;20051;-67
2022/06/17 09:05:59;;;;;;;8.27;6.82;;;23.00;99.90;;;;;;5092531;28;20545;-68
2022/06/17 09:09:06;;;;;;;9.25;7.05;;;23.10;99.90;;;;;;5091134;28;20479;-69
2022/06/17 09:11:35;;;;;;;9.90;6.53;;;23.20;99.90;;;;;;5091451;28;20040;-70
2022/06/17 09:14:28;;;;;;;7.72;6.43;;;23.40;99.90;;;;;;5092516;28;20040;-68
2022/06/17 09:17:42;;;;;;;7.97;5.80;;;23.70;99.90;;;;;;5091161;28;20047;-70
2022/06/17 09:20:10;;;;;;;7.18;5.78;;;24.00;99.90;;;;;;5036344;28;20040;-70
2022/06/17 09:22:47;;;;;;;6.85;5.53;;;24.20;99.90;;;;;;5085801;28;20081;-71
2022/06/17 09:25:21;;;;;;;7.57;5.30;;;24.30;99.90;;;;;;5090794;28;20048;-68
2022/06/17 09:27:50;;;;;;;10.68;5.47;;;24.30;99.90;;;;;;5088547;28;20055;-75
2022/06/17 09:30:31;;;;;;;6.57;5.40;;;24.50;99.90;;;;;;5095358;28;20116;-74
2022/06/17 09:33:23;;;;;;;7.55;5.45;;;24.80;99.90;;;;;;5094230;28;20044;-74
2022/06/17 09:36:02;;;;;;;8.20;5.20;;;24.90;99.60;;;;;;5095711;28;20492;-71
2022/06/17 09:38:40;;;;;;;9.65;5.15;;;25.00;99.20;;;;;;5094176;28;20040;-69
2022/06/17 09:41:33;;;;;;;8.80;5.20;;;25.00;99.90;;;;;;5095442;28;20101;-71
2022/06/17 09:44:06;;;;;;;8.20;4.97;;;25.00;99.90;;;;;;5094150;28;20046;-74
2022/06/17 09:46:52;;;;;;;7.07;4.70;;;25.00;99.90;;;;;;5116263;28;20044;-70
2022/06/17 09:49:35;;;;;;;6.53;4.38;;;25.00;98.60;;;;;;5116045;28;20067;-74
2022/06/17 09:52:05;;;;;;;7.10;4.45;;;25.00;98.20;;;;;;5115895;28;20428;-71
2022/06/17 09:54:38;;;;;;;10.02;4.40;;;25.00;98.40;;;;;;5097648;28;20500;-70
2022/06/17 09:57:35;;;;;;;6.60;4.25;;;25.00;98.60;;;;;;5097772;28;20388;-68
2022/06/17 10:00:05;;;;;;;9.00;4.25;;;25.10;99.40;;;;;;5097645;28;20039;-68
2022/06/17 10:02:53;;;;;;;4.57;3.45;;;25.20;97.90;;;;;;5097821;28;20131;-67
2022/06/17 10:05:43;;;;;;;6.68;3.60;;;25.10;96.40;;;;;;5097586;28;20552;-68
2022/06/17 10:08:28;;;;;;;6.05;3.75;;;25.10;96.60;;;;;;5097147;28;20131;-68
2022/06/17 10:11:05;;;;;;;6.63;3.63;;;25.10;96.40;;;;;;5097578;28;20112;-76
2022/06/17 10:13:31;;;;;;;5.05;3.17;;;25.20;96.40;;;;;;5097362;28;20040;-71
2022/06/17 10:19:14;;;;;;;5.28;3.17;;;25.20;95.10;;;;;;5076864;28;20044;-68
2022/06/17 10:21:59;;;;;;;8.75;3.50;;;25.30;95.40;;;;;;5110938;28;20040;-70
2022/06/17 10:24:44;;;;;;;7.25;3.47;;;25.50;95.40;;;;;;5076669;28;20483;-70
2022/06/17 10:27:35;;;;;;;4.65;2.92;;;25.60;94.60;;;;;;5110691;28;20377;-69
2022/06/17 10:30:16;;;;;;;7.65;3.10;;;25.70;96.60;;;;;;5076690;28;20040;-69
2022/06/17 10:32:46;;;;;;;8.20;3.55;;;26.10;96.50;;;;;;5076529;28;20040;-69
2022/06/17 10:35:34;;;;;;;8.35;3.10;;;26.40;95.00;;;;;;5094630;28;20123;-68
2022/06/17 10:38:10;;;;;;;4.82;3.08;;;26.50;92.50;;;;;;5110566;28;20044;-70
2022/06/17 10:40:38;;;;;;;4.97;3.97;;;26.60;91.80;;;;;;5075802;28;20044;-70
2022/06/17 10:43:09;;;;;;;6.53;3.45;;;26.60;93.00;;;;;;5064957;28;20035;-71
2022/06/17 10:45:35;;;;;;;9.40;3.97;;;26.70;93.10;;;;;;5093061;28;20064;-69
2022/06/17 10:48:25;;;;;;;7.97;3.63;;;26.90;93.70;;;;;;5093376;28;20048;-72
2022/06/17 10:50:51;;;;;;;11.65;3.72;;;27.00;92.40;;;;;;5079992;28;20154;-70
2022/06/17 10:53:37;;;;;;;6.25;3.55;;;27.00;90.30;;;;;;5094377;28;20067;-69
2022/06/17 10:56:11;;;;;;;4.93;3.45;;;27.00;91.50;;;;;;5094497;28;20032;-70
2022/06/17 10:58:37;;;;;;;7.63;3.83;;;27.10;91.80;;;;;;5091229;28;20039;-71
2022/06/17 11:01:11;;;;;;;8.80;4.40;;;27.30;90.50;;;;;;5094337;28;20105;-68
2022/06/17 11:03:48;;;;;;;6.47;3.83;;;27.30;88.20;;;;;;5093062;28;20096;-67
2022/06/17 11:06:25;;;;;;;5.40;3.17;;;27.10;89.20;;;;;;5092789;28;20055;-71
2022/06/17 11:09:03;;;;;;;9.23;4.47;;;26.90;89.20;;;;;;5092662;28;20056;-68
2022/06/17 11:12:06;;;;;;;7.60;3.90;;;26.90;90.60;;;;;;5094309;28;20072;-68
2022/06/17 11:14:44;;;;;;;5.05;4.00;;;27.00;90.10;;;;;;5092699;28;20518;-71
2022/06/17 11:17:12;;;;;;;4.80;3.17;;;27.20;89.00;;;;;;5092473;28;20436;-67
2022/06/17 11:19:40;;;;;;;8.27;3.50;;;27.40;90.70;;;;;;5092643;28;20040;-68
2022/06/17 11:22:21;;;;;;;4.82;3.30;;;27.70;91.20;;;;;;5092762;28;20052;-71
2022/06/17 11:24:58;;;;;;;5.95;3.28;;;28.10;84.60;;;;;;5092415;28;20048;-79
2022/06/17 11:27:41;;;;;;;8.18;3.63;;;28.10;79.60;;;;;;5093140;28;20042;-70
2022/06/17 11:30:28;;;;;;;8.82;3.80;;;28.00;81.10;;;;;;5093682;28;20032;-74
2022/06/17 11:32:56;;;;;;;6.80;5.07;;;27.90;81.30;;;;;;5093891;28;20032;-76
2022/06/17 11:35:32;;;;;;;6.68;3.90;;;27.70;79.00;;;;;;5092629;28;20426;-73
2022/06/17 11:38:00;;;;;;;7.47;4.45;;;27.70;79.40;;;;;;5092300;28;20051;-74
2022/06/17 11:40:36;;;;;;;5.25;3.60;;;27.70;79.40;;;;;;5092283;28;20071;-69
2022/06/17 11:43:06;;;;;;;7.03;4.10;;;27.80;78.70;;;;;;5092485;28;20040;-70
2022/06/17 11:45:36;;;;;;;5.35;3.40;;;28.00;79.00;;;;;;5091914;28;20054;-72
2022/06/17 11:48:10;;;;;;;6.43;3.90;;;28.10;78.10;;;;;;5092276;28;20044;-74
2022/06/17 11:50:42;;;;;;;6.82;4.10;;;28.20;76.30;;;;;;5092000;28;20040;-73
2022/06/17 11:53:16;;;;;;;7.85;3.75;;;28.30;77.50;;;;;;5091854;28;20043;-75
2022/06/17 11:55:45;;;;;;;6.75;3.67;;;28.40;76.40;;;;;;5093274;28;20107;-74
2022/06/17 11:58:13;;;;;;;4.80;3.50;;;28.50;74.70;;;;;;5089896;28;20044;-71
2022/06/17 12:00:51;;;;;;;8.10;4.00;;;28.40;74.10;;;;;;5091788;28;20046;-71
2022/06/17 12:03:39;;;;;;;5.22;3.30;;;28.50;76.50;;;;;;5093076;28;20046;-68
2022/06/17 12:06:17;;;;;;;5.20;3.67;;;28.50;77.30;;;;;;5091806;28;20048;-73
2022/06/17 12:08:57;;;;;;;7.03;4.67;;;28.70;75.50;;;;;;5093074;28;20039;-69
2022/06/17 12:11:42;;;;;;;8.07;3.47;;;28.70;72.70;;;;;;5091646;28;20449;-69
2022/06/17 12:14:53;;;;;;;5.95;3.40;;;28.60;72.60;;;;;;5091477;28;20040;-67
2022/06/17 12:17:20;;;;;;;4.65;2.92;;;28.60;70.50;;;;;;5092067;28;20119;-71
2022/06/17 12:19:46;;;;;;;6.90;3.20;;;28.40;68.50;;;;;;5074940;28;20052;-74
2022/06/17 12:22:28;;;;;;;6.95;3.00;;;28.30;67.80;;;;;;5091609;28;20073;-72
2022/06/17 12:25:00;;;;;;;7.45;3.85;;;28.30;71.70;;;;;;5091700;28;20048;-73
2022/06/17 12:27:51;;;;;;;7.72;3.40;;;28.30;67.40;;;;;;5091128;28;20131;-75
2022/06/17 12:30:28;;;;;;;4.18;3.30;;;28.20;69.30;;;;;;5091989;28;20043;-71
2022/06/17 12:33:12;;;;;;;5.32;3.20;;;28.10;67.90;;;;;;5091951;28;20062;-72
2022/06/17 12:35:55;;;;;;;4.22;3.03;;;28.10;68.80;;;;;;5091517;28;20036;-75
2022/06/17 12:38:30;;;;;;;3.75;2.70;;;28.10;71.70;;;;;;5092737;28;20028;-69
2022/06/17 12:41:10;;;;;;;4.95;2.92;;;28.20;71.70;;;;;;5074696;28;20097;-69
2022/06/17 12:43:40;;;;;;;5.82;2.58;;;28.30;70.90;;;;;;5091256;28;20173;-68
2022/06/17 12:46:21;;;;;;;4.18;2.53;;;28.40;72.10;;;;;;5091255;28;20075;-69
2022/06/17 12:53:13;;;;;;;3.92;2.45;;;28.50;71.50;;;;;;5091471;28;20048;-73
2022/06/17 12:54:49;;;;;;;3.80;2.50;;;28.20;65.60;;;;;;5091585;28;20044;-67
2022/06/17 12:57:49;;;;;;;6.18;2.67;;;27.90;64.60;;;;;;5091404;28;20048;-71
2022/06/17 13:00:19;;;;;;;4.85;2.55;;;27.80;69.00;;;;;;5091361;28;20503;-69
2022/06/17 13:02:57;;;;;;;7.00;2.88;;;27.90;71.90;;;;;;5091621;28;20048;-71
2022/06/17 13:05:43;;;;;;;3.80;2.63;;;28.10;67.30;;;;;;5094489;28;20450;-69
2022/06/17 13:08:24;;;;;;;3.78;2.60;;;28.20;72.50;;;;;;5095017;28;20468;-71
2022/06/17 13:11:26;;;;;;;6.85;3.03;;;28.20;68.30;;;;;;5095095;28;20076;-69
2022/06/17 13:14:16;;;;;;;8.23;3.60;;;28.20;69.20;;;;;;5095146;28;20039;-69
2022/06/17 13:17:00;;;;;;;6.80;3.22;;;28.30;66.80;;;;;;5095111;28;20036;-71
2022/06/17 13:19:57;;;;;;;7.03;3.35;;;28.30;71.00;;;;;;5096107;28;20472;-69
2022/06/17 13:22:46;;;;;;;6.63;3.25;;;28.30;69.80;;;;;;5072397;28;20123;-70
2022/06/17 13:25:12;;;;;;;4.60;2.53;;;28.30;68.90;;;;;;5064154;28;20531;-69